AirNav   Everest Fuels
 
 503 users online  

07KS Heape Field Airport
Augusta, Kansas, USA

GOING TO AUGUSTA?


FAA INFORMATION EFFECTIVE 08 SEPTEMBER 2022

Location

FAA Identifier: 07KS
Lat/Long: 37-44-03.0620N 096-56-12.1230W
37-44.051033N 096-56.202050W
37.7341839,-96.9367008
(estimated)
Elevation: 1321 ft. / 403 m (estimated)
Variation: 07E (1985)
From city: 3 miles NE of AUGUSTA, KS
Time zone: UTC -5 (UTC -6 during Standard Time)
Zip code: 67042

Airport Operations

Airport use: Private use. Permission required prior to landing
Activation date: 12/1980
Control tower: no
ARTCC: KANSAS CITY CENTER
FSS: WICHITA FLIGHT SERVICE STATION
Attendance: UNATNDD
Wind indicator: yes
Segmented circle: no

Airport Communications

WX AWOS-3P at EQA (6 nm NE): 120.875 (316-322-8095)
WX AWOS-3P at 3AU (8 nm SW): 124.175 (316-733-6696)
WX AWOS-2 at 1K1 (9 nm W): 118.3 (316-530-6004)
WX AWOS-3PT at BEC (13 nm W): 119.45 (316-515-7116)
WX ASOS at AAO (14 nm W): 134.025 (316-636-2541)

Nearby radio navigation aids

VOR radial/distance  VOR name  Freq  Var
ICTr084/30.7WICHITA VORTAC113.8007E

Airport Services

Runway Information

Runway 18/36

Dimensions: 2000 x 45 ft. / 610 x 14 m
Surface: turf
RUNWAY 18  RUNWAY 36
Traffic pattern: leftleft

Airport Ownership and Management from official FAA records

Ownership: Privately-owned
Owner: DARRELL L. HEAPE
RR 1, BOX 141
ELDORADO, KS 67042
Phone 316-775-7839
Manager: DARRELL L. HEAPE
RR 1, BOX 141
ELDORADO, KS 67042
Phone 316-775-7839

Airport Operational Statistics

Aircraft based on the field: 1
Single engine airplanes: 1
    

Additional Remarks

FOR CD CTC WICHITA APCH AT 316-350-1520.

Instrument Procedures

There are no published instrument procedures at 07KS.

Some nearby airports with instrument procedures:

KEQA - El Dorado/Capt Jack Thomas Memorial Airport (6 nm NE)
3AU - Augusta Municipal Airport (8 nm SW)
1K1 - Lloyd Stearman Field Airport (9 nm W)
KBEC - Beech Factory Airport (13 nm W)
KAAO - Colonel James Jabara Airport (14 nm W)
KCEA - Cessna Aircraft Field Airport (16 nm W)
KIAB - Mc Connell Air Force Base (17 nm SW)
 
Loc | Ops | Rwys | IFR | FBO | Links
Com | Nav | Svcs | Stats | Notes
Area around 07KS (Heape Field Airport)
 
Road maps at: MapQuest Bing Google
 
Aerial photo
No photo
 
Sectional chart

 
Airport distance calculator
Flying to Heape Field Airport? Find the distance to fly.

From to 07KS

Sunrise and sunset
Times for 03-Oct-2022
 Local
(UTC-5)
 Zulu
(UTC)
Morning civil twilight07:0012:00
Sunrise07:2612:26
Sunset19:0700:07
Evening civil twilight19:3400:34

Current date and time
Zulu (UTC)  03-Oct-2022 06:04:49
Local (UTC-5)  03-Oct-2022 01:04:49
 
METAR
KEQA 
6nm NE 
030555Z AUTO 11007KT 10SM CLR 15/02 A3022 RMK AO2
K3AU 
8nm SW 
030555Z AUTO 11003KT 10SM CLR 15/00 A3022 RMK AO2
K1K1 
9nm W 
030555Z AUTO 14003KT 10SM CLR 14/01 A3023 RMK AO2 T01360008 10247 20136 402900081
KAAO 
13nm W 
030554Z AUTO 15005KT 10SM CLR 16/02 A3022 RMK AO2 SLP224 T01610022 10256 20156 402940094 58002
KBEC 
13nm W 
030555Z AUTO 12003KT 10SM CLR 15/02 A3022 RMK AO2 T01510021 10248 20151 402900112
KIAB 
17nm SW 
030555Z AUTO 00000KT 10SM CLR 17/02 A3019 RMK AO2 SLP217 T01700022 10262 20169 402900122 58003
TAF
KIAB 
17nm SW 
030400Z 0304/0410 13006KT 9999 SKC QNH3011INS WND 17009 AFT 0316 TX29/0321Z TN12/0312Z
NOTAMs
Click for the latest NOTAMs
NOTAMs are issued by the DoD/FAA and will open in a separate window not controlled by AirNav.

 

 
 

Would you like to see your business listed on this page?

 If your business provides an interesting product or service to pilots, flight crews, aircraft, or users of the Heape Field Airport, you should consider listing it here.  To start the listing process, click on the button below
 
Add a business
 

Other Pages about Heape Field Airport

Update a link
 
Copyright © AirNav, LLC. All rights reserved. Privacy Policy  Contact